Time;durP1;ratioP1;P1;durP2;ratioP2;P2;SDS_P1;SDS_P2;PMS_P1;PMS_P2;Temp;Humidity;BMP_temperature;BMP_pressure;BME280_temperature;BME280_humidity;BME280_pressure;Samples;Min_cycle;Max_cycle;Signal;HPM_P1;HPM_P2
2023/07/12 00:01:16;;;;;;;4.30;3.37;;;;;;;26.01;100.00;98311.25;5082677;27;103721;-72
2023/07/12 00:03:46;;;;;;;3.63;3.00;;;;;;;25.44;100.00;98296.75;5076545;27;103844;-71
2023/07/12 00:06:17;;;;;;;3.65;2.83;;;;;;;24.88;100.00;98290.28;5100204;27;104437;-72
2023/07/12 00:08:45;;;;;;;4.90;3.00;;;;;;;25.00;100.00;98288.59;5096065;27;103263;-72
2023/07/12 00:11:17;;;;;;;3.57;3.00;;;;;;;24.89;100.00;98287.41;5076952;27;102908;-72
2023/07/12 00:13:45;;;;;;;3.57;3.13;;;;;;;24.85;100.00;98301.50;5100294;27;103968;-71
2023/07/12 00:16:19;;;;;;;4.38;3.40;;;;;;;25.24;100.00;98274.38;5097699;27;103727;-72
2023/07/12 00:18:49;;;;;;;4.25;2.72;;;;;;;25.09;100.00;98276.53;5097666;27;102720;-71
2023/07/12 00:21:22;;;;;;;3.53;2.55;;;;;;;25.46;100.00;98270.31;5079339;27;103686;-71
2023/07/12 00:23:53;;;;;;;2.92;2.60;;;;;;;25.20;100.00;98279.41;5098167;27;103119;-72
2023/07/12 00:26:26;;;;;;;3.58;2.40;;;;;;;25.58;100.00;98268.63;5082210;27;103994;-72
2023/07/12 00:28:55;;;;;;;3.42;2.50;;;;;;;25.32;100.00;98279.53;5098495;27;103247;-72
2023/07/12 00:31:24;;;;;;;3.42;2.60;;;;;;;25.20;100.00;98273.16;5106027;27;102753;-71
2023/07/12 00:33:53;;;;;;;3.42;2.50;;;;;;;25.27;100.00;98260.44;5105473;27;102633;-72
2023/07/12 00:36:23;;;;;;;2.50;2.30;;;;;;;25.69;100.00;98254.44;5079677;27;104243;-72
2023/07/12 00:38:51;;;;;;;2.90;2.60;;;;;;;25.72;100.00;98240.47;5101885;27;103332;-73
2023/07/12 00:41:29;;;;;;;4.00;2.50;;;;;;;25.82;100.00;98226.47;5105256;27;102756;-71
2023/07/12 00:44:03;;;;;;;3.10;2.63;;;;;;;25.96;100.00;98230.75;5104905;27;103879;-72
2023/07/12 00:46:35;;;;;;;3.30;2.70;;;;;;;26.00;100.00;98223.00;5081560;27;104417;-72
2023/07/12 00:49:04;;;;;;;3.57;2.70;;;;;;;25.93;100.00;98236.59;5084000;27;104244;-68
2023/07/12 00:51:53;;;;;;;3.05;2.38;;;;;;;25.97;100.00;98242.38;5084603;27;102860;-67
2023/07/12 00:54:26;;;;;;;3.25;2.60;;;;;;;26.06;100.00;98232.94;5101772;27;103405;-67
2023/07/12 00:56:54;;;;;;;3.03;2.60;;;;;;;25.89;100.00;98238.06;5085432;27;104208;-66
2023/07/12 00:59:25;;;;;;;3.83;2.90;;;;;;;26.29;100.00;98247.56;5082842;27;103217;-68
2023/07/12 01:01:58;;;;;;;3.85;2.50;;;;;;;26.15;100.00;98245.19;5083996;27;103094;-65
2023/07/12 01:04:33;;;;;;;2.30;2.00;;;;;;;25.98;100.00;98234.06;5082098;27;104517;-67
2023/07/12 01:07:01;;;;;;;2.83;2.50;;;;;;;25.86;100.00;98227.69;5102717;27;104127;-67
2023/07/12 01:09:29;;;;;;;3.63;2.30;;;;;;;26.31;100.00;98225.69;5104609;27;103209;-67
2023/07/12 01:11:57;;;;;;;3.33;2.70;;;;;;;25.94;100.00;98222.84;5103559;27;102916;-67
2023/07/12 01:14:26;;;;;;;3.73;2.80;;;;;;;25.92;100.00;98224.09;5082980;27;103808;-67
2023/07/12 01:16:58;;;;;;;2.63;2.20;;;;;;;25.64;100.00;98210.97;5099500;27;103686;-67
2023/07/12 01:19:28;;;;;;;3.40;2.20;;;;;;;25.58;100.00;98190.22;5094944;27;103181;-67
2023/07/12 01:21:57;;;;;;;3.20;2.40;;;;;;;25.50;100.00;98174.25;5102918;27;102875;-67
2023/07/12 01:24:31;;;;;;;3.10;2.35;;;;;;;26.06;100.00;98160.69;5101430;27;102949;-66
2023/07/12 01:27:11;;;;;;;2.65;2.10;;;;;;;26.50;100.00;98156.97;5081427;27;104095;-66
2023/07/12 01:29:39;;;;;;;2.50;2.30;;;;;;;26.85;100.00;98160.75;5096753;27;103207;-66
2023/07/12 01:32:11;;;;;;;2.85;2.55;;;;;;;25.26;100.00;98151.47;5099989;27;102648;-67
2023/07/12 01:34:39;;;;;;;2.42;2.20;;;;;;;26.15;100.00;98164.81;5081857;27;102897;-66
2023/07/12 01:37:08;;;;;;;2.13;1.93;;;;;;;26.66;100.00;98171.81;5094333;27;103757;-67
2023/07/12 01:39:36;;;;;;;2.60;2.00;;;;;;;26.96;100.00;98170.84;5080160;27;103312;-67
2023/07/12 01:42:05;;;;;;;2.47;2.20;;;;;;;26.72;100.00;98165.47;5097216;27;103140;-67
2023/07/12 01:44:33;;;;;;;4.40;2.87;;;;;;;26.11;100.00;98125.66;5079454;27;104229;-67
2023/07/12 01:47:01;;;;;;;3.15;2.85;;;;;;;25.52;100.00;98025.28;5083813;27;103431;-67
2023/07/12 01:49:28;;;;;;;3.45;2.90;;;;;;;24.72;100.00;97989.91;5079893;27;104108;-66
2023/07/12 01:51:56;;;;;;;3.00;2.70;;;;;;;24.70;100.00;98026.28;5101448;27;102673;-66
2023/07/12 01:54:28;;;;;;;4.63;2.80;;;;;;;24.91;100.00;98069.16;5084444;27;103002;-66
2023/07/12 01:56:56;;;;;;;6.35;3.00;;;;;;;25.31;100.00;98089.50;5099528;27;103274;-67
2023/07/12 01:59:24;;;;;;;4.32;3.28;;;;;;;24.60;100.00;98098.78;5081064;27;104145;-66
2023/07/12 02:01:53;;;;;;;2.40;2.20;;;;;;;25.42;100.00;98111.47;5083726;27;103026;-67
2023/07/12 02:04:22;;;;;;;3.40;2.53;;;;;;;25.55;100.00;98105.97;5082680;27;103343;-67
2023/07/12 02:06:49;;;;;;;2.27;2.07;;;;;;;26.02;100.00;98104.56;5077351;27;104202;-67
2023/07/12 02:09:20;;;;;;;2.70;2.10;;;;;;;26.54;100.00;98103.16;5103019;27;103350;-67
2023/07/12 02:11:49;;;;;;;3.83;2.47;;;;;;;26.70;100.00;98097.97;5102084;27;102735;-67
2023/07/12 02:14:17;;;;;;;2.65;2.30;;;;;;;26.41;100.00;98098.75;5082605;27;103887;-67
2023/07/12 02:16:48;;;;;;;3.08;2.30;;;;;;;26.25;100.00;98093.91;5082520;27;104151;-67
2023/07/12 02:19:16;;;;;;;3.03;2.40;;;;;;;26.13;100.00;98091.13;5108740;27;104157;-66
2023/07/12 02:21:44;;;;;;;2.90;2.55;;;;;;;26.19;100.00;98094.84;5099132;27;102593;-67
2023/07/12 02:24:12;;;;;;;2.83;2.20;;;;;;;25.98;100.00;98092.50;5103215;27;103944;-67
2023/07/12 02:26:43;;;;;;;3.10;2.38;;;;;;;26.09;100.00;98091.75;5100644;27;103947;-67
2023/07/12 02:29:12;;;;;;;3.08;2.50;;;;;;;25.94;100.00;98098.34;5099332;27;103189;-67
2023/07/12 02:31:40;;;;;;;3.93;2.40;;;;;;;26.17;100.00;98086.91;5084577;27;102875;-67
2023/07/12 02:34:08;;;;;;;2.95;2.10;;;;;;;26.46;100.00;98091.59;5080934;27;103735;-67
2023/07/12 02:36:36;;;;;;;2.58;2.10;;;;;;;26.66;100.00;98090.53;5080535;27;104022;-67
2023/07/12 02:39:04;;;;;;;2.38;1.90;;;;;;;26.56;100.00;98085.63;5100301;27;103202;-68
2023/07/12 02:41:32;;;;;;;2.22;1.95;;;;;;;26.59;100.00;98089.78;5081126;27;102804;-67
2023/07/12 02:44:00;;;;;;;4.07;2.30;;;;;;;26.53;100.00;98090.72;5074266;27;102778;-68
2023/07/12 02:46:32;;;;;;;2.10;1.90;;;;;;;26.79;100.00;98084.97;5080014;27;104573;-68
2023/07/12 02:48:59;;;;;;;1.83;1.73;;;;;;;27.01;100.00;98095.09;5096690;27;102693;-67
2023/07/12 02:51:30;;;;;;;3.17;2.10;;;;;;;27.05;100.00;98096.28;5100695;27;102802;-67
2023/07/12 02:53:57;;;;;;;2.03;1.77;;;;;;;27.12;99.79;98101.59;5087338;27;102938;-67
2023/07/12 02:56:25;;;;;;;2.28;2.00;;;;;;;27.06;100.00;98095.22;5095077;27;103026;-67
2023/07/12 02:58:53;;;;;;;2.03;1.80;;;;;;;27.09;100.00;98079.56;5096831;27;103294;-67
2023/07/12 03:01:21;;;;;;;3.75;1.90;;;;;;;27.14;100.00;98077.81;5078292;27;102809;-67
2023/07/12 03:03:50;;;;;;;2.43;2.20;;;;;;;26.95;100.00;98071.59;5076240;27;103982;-67
2023/07/12 03:06:21;;;;;;;2.63;1.98;;;;;;;26.95;100.00;98082.44;5088871;27;103028;-67
2023/07/12 03:08:49;;;;;;;4.72;2.58;;;;;;;26.55;100.00;98099.41;5097871;27;103214;-68
2023/07/12 03:11:17;;;;;;;2.63;2.17;;;;;;;26.88;100.00;98106.13;5096872;27;103044;-67
2023/07/12 03:13:50;;;;;;;3.17;2.22;;;;;;;26.88;100.00;98106.13;5097670;27;102754;-66
2023/07/12 03:16:17;;;;;;;3.27;2.10;;;;;;;27.06;100.00;98108.75;5101973;27;103739;-66
2023/07/12 03:18:45;;;;;;;2.30;2.10;;;;;;;27.09;99.74;98112.09;5076483;27;104381;-66
2023/07/12 03:21:15;;;;;;;1.90;1.80;;;;;;;27.06;99.04;98114.19;5097437;27;102610;-66
2023/07/12 03:23:43;;;;;;;2.30;2.10;;;;;;;27.00;99.60;98114.31;5099708;27;102691;-66
2023/07/12 03:26:11;;;;;;;3.65;2.88;;;;;;;26.56;100.00;98110.00;5099393;27;103914;-66
2023/07/12 03:28:39;;;;;;;4.78;2.78;;;;;;;26.08;100.00;98109.06;5099511;27;103255;-66
2023/07/12 03:31:10;;;;;;;3.60;2.37;;;;;;;26.43;100.00;98104.75;5094104;27;102831;-67
2023/07/12 03:33:39;;;;;;;4.90;3.20;;;;;;;26.63;100.00;98107.25;5081014;27;104138;-66
2023/07/12 03:36:07;;;;;;;4.17;2.60;;;;;;;26.68;100.00;98108.22;5079581;27;103283;-66
2023/07/12 03:38:36;;;;;;;3.30;2.35;;;;;;;26.73;100.00;98113.75;5073059;27;104324;-66
2023/07/12 03:41:07;;;;;;;2.85;2.38;;;;;;;26.94;100.00;98112.50;5073775;27;103224;-67
2023/07/12 03:43:35;;;;;;;3.35;2.25;;;;;;;27.01;99.63;98119.47;5095879;27;103556;-67
2023/07/12 03:46:05;;;;;;;2.30;2.10;;;;;;;26.88;99.33;98119.66;5096048;27;104081;-67
2023/07/12 03:48:33;;;;;;;3.70;2.53;;;;;;;26.93;99.42;98127.94;5090970;27;103227;-66
2023/07/12 03:51:01;;;;;;;3.15;2.30;;;;;;;27.01;99.33;98137.63;5095851;27;102683;-67
2023/07/12 03:53:31;;;;;;;3.10;2.80;;;;;;;26.96;100.00;98149.16;5097941;27;103053;-66
2023/07/12 03:56:01;;;;;;;2.97;2.50;;;;;;;26.93;99.27;98160.44;5076698;27;103761;-66
2023/07/12 03:58:32;;;;;;;2.60;2.30;;;;;;;26.55;100.00;98159.84;5095009;27;103195;-66
2023/07/12 04:01:03;;;;;;;5.00;3.10;;;;;;;26.37;100.00;98133.56;5092627;27;102835;-66
2023/07/12 04:03:31;;;;;;;4.60;2.75;;;;;;;26.39;100.00;98123.31;5098223;27;103846;-66
2023/07/12 04:05:59;;;;;;;5.07;3.20;;;;;;;26.62;100.00;98117.25;5094872;27;103884;-66
2023/07/12 04:08:27;;;;;;;3.60;3.00;;;;;;;26.50;100.00;98128.00;5098390;27;103204;-66
2023/07/12 04:10:56;;;;;;;5.65;3.45;;;;;;;25.91;100.00;98131.28;5096949;27;102987;-66
2023/07/12 04:13:27;;;;;;;5.60;2.90;;;;;;;26.15;100.00;98153.16;5098375;27;102842;-69
2023/07/12 04:15:59;;;;;;;5.37;3.20;;;;;;;26.21;100.00;98157.69;5094589;27;103308;-69
2023/07/12 04:18:27;;;;;;;5.57;3.38;;;;;;;26.18;100.00;98167.09;5091197;27;102738;-69
2023/07/12 04:20:58;;;;;;;4.45;2.95;;;;;;;26.33;100.00;98172.16;5092278;27;103190;-69
2023/07/12 04:23:27;;;;;;;3.78;2.92;;;;;;;26.21;100.00;98187.47;5075163;27;104142;-69
2023/07/12 04:25:59;;;;;;;4.73;3.13;;;;;;;26.23;100.00;98182.66;5092450;27;103308;-69
2023/07/12 04:28:29;;;;;;;5.60;3.00;;;;;;;26.18;100.00;98177.09;5069983;27;104117;-70
2023/07/12 04:31:02;;;;;;;4.57;2.88;;;;;;;26.51;100.00;98177.59;5071812;27;102874;-69
2023/07/12 04:33:30;;;;;;;4.65;3.17;;;;;;;25.92;100.00;98181.63;5076559;27;102983;-69
2023/07/12 04:35:58;;;;;;;7.88;3.28;;;;;;;26.00;100.00;98171.56;5094491;27;103325;-69
2023/07/12 04:38:27;;;;;;;5.17;3.40;;;;;;;26.47;100.00;98168.25;5071294;27;103200;-69
2023/07/12 04:40:55;;;;;;;5.72;3.10;;;;;;;26.66;100.00;98172.63;5097883;27;103084;-69
2023/07/12 04:43:26;;;;;;;7.17;3.43;;;;;;;26.62;100.00;98171.41;5099000;27;102686;-69
2023/07/12 04:45:55;;;;;;;6.60;3.60;;;;;;;26.75;100.00;98173.97;5080393;27;103819;-69
2023/07/12 04:48:23;;;;;;;6.67;3.80;;;;;;;25.84;100.00;98168.38;5098380;27;102995;-70
2023/07/12 04:50:52;;;;;;;3.83;3.37;;;;;;;25.76;100.00;98170.53;5080199;27;102994;-69
2023/07/12 04:53:21;;;;;;;4.95;3.25;;;;;;;26.86;100.00;98156.97;5078110;27;102734;-69
2023/07/12 04:55:52;;;;;;;4.47;2.83;;;;;;;27.29;100.00;98154.13;5100273;27;104365;-69
2023/07/12 04:58:20;;;;;;;3.35;2.65;;;;;;;27.51;100.00;98155.28;5099894;27;103455;-68
2023/07/12 05:00:48;;;;;;;7.00;3.50;;;;;;;27.14;100.00;98158.31;5094113;27;102847;-69
2023/07/12 05:03:17;;;;;;;4.47;3.17;;;;;;;27.43;100.00;98152.06;5093463;27;102945;-69
2023/07/12 05:05:46;;;;;;;6.18;3.80;;;;;;;26.89;100.00;98161.94;5077392;27;104453;-68
2023/07/12 05:08:15;;;;;;;4.68;3.95;;;;;;;26.53;100.00;98164.63;5101306;27;103250;-69
2023/07/12 05:10:43;;;;;;;6.60;4.00;;;;;;;26.43;100.00;98172.47;5103037;27;102862;-69
2023/07/12 05:13:11;;;;;;;7.75;4.70;;;;;;;26.33;100.00;98175.66;5098556;27;102738;-69
2023/07/12 05:15:46;;;;;;;5.37;4.37;;;;;;;26.35;100.00;98175.47;5102772;27;103344;-69
2023/07/12 05:18:14;;;;;;;7.67;4.63;;;;;;;26.29;100.00;98179.06;5101248;27;103171;-69
2023/07/12 05:20:44;;;;;;;4.90;4.40;;;;;;;27.01;100.00;98176.41;5102892;27;103243;-69
2023/07/12 05:23:12;;;;;;;7.57;4.70;;;;;;;26.67;100.00;98182.41;5060896;27;104309;-69
2023/07/12 05:25:47;;;;;;;6.73;4.83;;;;;;;26.20;100.00;98183.09;5097554;27;104132;-68
2023/07/12 05:28:17;;;;;;;5.85;4.55;;;;;;;26.15;100.00;98186.47;5102658;27;103231;-69
2023/07/12 05:30:45;;;;;;;6.70;5.00;;;;;;;26.00;100.00;98190.53;5081399;27;104086;-69
2023/07/12 05:33:13;;;;;;;7.47;4.50;;;;;;;25.99;100.00;98186.19;5096290;27;102963;-69
2023/07/12 05:35:42;;;;;;;6.17;4.50;;;;;;;26.28;100.00;98191.75;5100268;27;103847;-67
2023/07/12 05:38:13;;;;;;;6.47;4.30;;;;;;;26.88;100.00;98186.56;5075627;27;104043;-68
2023/07/12 05:40:41;;;;;;;6.90;4.57;;;;;;;26.70;100.00;98186.53;5075748;27;102884;-68
2023/07/12 05:43:09;;;;;;;6.55;4.75;;;;;;;26.71;100.00;98185.50;5100663;27;103765;-68
2023/07/12 05:45:37;;;;;;;8.07;4.53;;;;;;;26.06;100.00;98187.78;5097369;27;103796;-68
2023/07/12 05:48:05;;;;;;;7.00;4.72;;;;;;;26.12;100.00;98194.19;5103983;27;103197;-68
2023/07/12 05:50:33;;;;;;;6.53;4.50;;;;;;;26.61;100.00;98191.41;5098948;27;104190;-66
2023/07/12 05:53:03;;;;;;;5.72;4.30;;;;;;;26.44;100.00;98185.75;5102399;27;103097;-67
2023/07/12 05:55:33;;;;;;;6.68;4.90;;;;;;;26.62;100.00;98187.66;5083470;27;105676;-69
2023/07/12 05:58:01;;;;;;;8.20;4.57;;;;;;;26.87;100.00;98177.63;5102987;27;103185;-69
2023/07/12 06:00:32;;;;;;;7.20;4.73;;;;;;;26.99;100.00;98183.94;5096808;27;102945;-69
2023/07/12 06:02:59;;;;;;;7.60;4.80;;;;;;;26.58;100.00;98181.06;5095312;27;102735;-69
2023/07/12 06:05:28;;;;;;;8.80;4.60;;;;;;;27.12;100.00;98182.94;5094224;27;103394;-69
2023/07/12 06:07:56;;;;;;;6.50;4.32;;;;;;;27.40;99.25;98182.34;5101393;27;103202;-69
2023/07/12 06:10:24;;;;;;;6.20;4.68;;;;;;;27.33;99.47;98179.75;5082666;27;102755;-70
2023/07/12 06:12:53;;;;;;;6.85;4.70;;;;;;;27.17;99.26;98174.13;5101661;27;102633;-69
2023/07/12 06:15:21;;;;;;;6.50;4.90;;;;;;;27.57;98.62;98183.38;5100736;27;104268;-69
2023/07/12 06:17:49;;;;;;;6.05;4.50;;;;;;;27.64;96.79;98186.84;5081643;27;104138;-68
2023/07/12 06:20:18;;;;;;;8.00;4.55;;;;;;;27.54;97.55;98187.38;5107326;27;102917;-68
2023/07/12 06:22:46;;;;;;;5.35;4.43;;;;;;;27.74;96.02;98191.69;5082883;27;102984;-69
2023/07/12 06:25:14;;;;;;;7.45;4.40;;;;;;;28.34;93.81;98198.66;5099348;27;103263;-68
2023/07/12 06:27:42;;;;;;;6.87;4.50;;;;;;;28.08;95.14;98194.50;5082111;27;103209;-68
2023/07/12 06:30:12;;;;;;;6.63;4.47;;;;;;;27.80;96.10;98197.00;5103102;27;102641;-68
2023/07/12 06:32:40;;;;;;;8.57;4.50;;;;;;;27.65;95.46;98198.53;5103273;27;104037;-69
2023/07/12 06:35:09;;;;;;;5.82;4.18;;;;;;;27.83;94.77;98201.16;5098726;27;104474;-69
2023/07/12 06:37:37;;;;;;;5.53;4.27;;;;;;;28.53;92.07;98207.50;5081911;27;103275;-69
2023/07/12 06:40:06;;;;;;;6.10;3.92;;;;;;;28.88;90.38;98205.63;5100087;27;102749;-69
2023/07/12 06:42:36;;;;;;;5.60;4.28;;;;;;;29.19;89.45;98202.44;5105107;27;103839;-69
2023/07/12 06:45:05;;;;;;;6.72;4.22;;;;;;;28.92;89.14;98201.34;5097791;27;103314;-69
2023/07/12 06:47:37;;;;;;;6.68;4.10;;;;;;;28.66;89.95;98197.25;5102458;27;103200;-69
2023/07/12 06:50:06;;;;;;;5.78;3.95;;;;;;;29.42;90.24;98200.75;5102597;27;102860;-67
2023/07/12 06:52:34;;;;;;;6.57;4.40;;;;;;;28.92;88.73;98206.78;5103349;27;103928;-67
2023/07/12 06:55:09;;;;;;;6.82;4.72;;;;;;;29.21;88.63;98216.66;5098709;27;103646;-67
2023/07/12 06:57:37;;;;;;;6.80;4.70;;;;;;;29.29;87.13;98227.19;5098865;27;103301;-68
2023/07/12 07:00:08;;;;;;;6.93;4.55;;;;;;;29.86;85.68;98224.47;5097210;27;102978;-68
2023/07/12 07:02:38;;;;;;;7.40;4.13;;;;;;;29.12;85.79;98226.25;5085421;27;102862;-68
2023/07/12 07:05:06;;;;;;;5.77;3.70;;;;;;;29.68;84.44;98227.38;5059486;27;104008;-68
2023/07/12 07:07:34;;;;;;;7.70;4.10;;;;;;;29.09;86.03;98237.59;5056989;27;103138;-68
2023/07/12 07:10:02;;;;;;;5.22;3.47;;;;;;;30.02;82.37;98240.00;5041456;27;103059;-68
2023/07/12 07:12:30;;;;;;;6.28;4.00;;;;;;;29.67;83.81;98242.06;5054142;27;103917;-68
2023/07/12 07:14:58;;;;;;;5.95;4.10;;;;;;;28.69;84.46;98247.56;5058495;27;104206;-68
2023/07/12 07:17:26;;;;;;;5.97;3.53;;;;;;;29.39;82.80;98250.22;5054793;27;103213;-68
2023/07/12 07:19:55;;;;;;;4.03;3.33;;;;;;;30.05;80.89;98249.56;5038364;27;103317;-68
2023/07/12 07:22:23;;;;;;;5.57;4.13;;;;;;;29.85;80.94;98250.03;5056335;27;104118;-69
2023/07/12 07:24:51;;;;;;;4.22;3.30;;;;;;;30.17;80.08;98255.78;5053928;27;103269;-68
2023/07/12 07:27:19;;;;;;;4.53;3.17;;;;;;;30.87;79.05;98267.00;5052890;27;103220;-68
2023/07/12 07:29:47;;;;;;;5.38;3.85;;;;;;;30.38;78.50;98261.34;5060236;27;102657;-67
2023/07/12 07:32:15;;;;;;;4.60;3.40;;;;;;;30.17;76.59;98258.50;5057973;27;103128;-67
2023/07/12 07:34:43;;;;;;;4.47;3.13;;;;;;;29.64;76.64;98276.00;5057028;27;104181;-68
2023/07/12 07:37:13;;;;;;;4.60;3.10;;;;;;;29.72;77.85;98278.38;5054999;27;103181;-67
2023/07/12 07:39:41;;;;;;;3.77;3.30;;;;;;;29.76;76.93;98262.34;5054064;27;103180;-67
2023/07/12 07:42:09;;;;;;;4.82;3.20;;;;;;;30.38;75.88;98277.69;5054251;27;103887;-68
2023/07/12 07:44:37;;;;;;;5.47;3.33;;;;;;;30.98;75.02;98266.94;5043328;27;104185;-68
2023/07/12 07:47:05;;;;;;;4.57;3.38;;;;;;;31.17;74.17;98274.81;5053188;27;102984;-68
2023/07/12 07:49:33;;;;;;;4.53;3.53;;;;;;;30.63;73.69;98280.00;5035184;27;102715;-68
2023/07/12 07:52:02;;;;;;;4.40;3.55;;;;;;;30.78;74.45;98287.59;5055812;27;103853;-67
2023/07/12 07:54:31;;;;;;;6.95;3.30;;;;;;;30.80;74.57;98285.44;5059510;27;104221;-68
2023/07/12 07:56:59;;;;;;;5.80;3.25;;;;;;;30.21;74.71;98290.44;5055684;27;103315;-68
2023/07/12 07:59:27;;;;;;;4.90;3.53;;;;;;;31.03;74.16;98290.72;5057959;27;103252;-68
2023/07/12 08:01:57;;;;;;;4.90;3.40;;;;;;;31.56;73.40;98288.16;5041804;27;103772;-68
2023/07/12 08:04:25;;;;;;;5.30;3.80;;;;;;;30.81;73.70;98284.38;5053508;27;104046;-68
2023/07/12 08:06:55;;;;;;;4.63;3.50;;;;;;;31.16;72.64;98290.34;5053849;27;103650;-68
2023/07/12 08:09:23;;;;;;;5.83;3.60;;;;;;;32.06;69.78;98271.53;5059523;27;102956;-68
2023/07/12 08:11:52;;;;;;;4.35;3.17;;;;;;;32.37;70.65;98271.78;5060759;27;102746;-68
2023/07/12 08:14:20;;;;;;;5.35;3.50;;;;;;;31.97;71.32;98270.31;5050790;27;103223;-68
2023/07/12 08:16:48;;;;;;;5.97;3.73;;;;;;;32.98;67.94;98271.19;5059390;27;103167;-68
2023/07/12 08:19:19;;;;;;;3.73;3.23;;;;;;;32.82;67.96;98269.44;5057917;27;102772;-69
2023/07/12 08:21:50;;;;;;;5.10;3.10;;;;;;;33.39;64.56;98279.63;5044999;27;103978;-69
2023/07/12 08:24:20;;;;;;;4.35;3.25;;;;;;;33.92;62.02;98281.19;5057092;27;104885;-68
2023/07/12 08:26:48;;;;;;;5.85;3.22;;;;;;;34.70;61.58;98288.97;5060892;27;102972;-68
2023/07/12 08:29:34;;;;;;;4.90;2.90;;;;;;;34.36;62.51;98287.84;5057547;27;102856;-68
2023/07/12 08:32:02;;;;;;;4.18;3.17;;;;;;;34.98;60.96;98289.50;5056901;27;103966;-68
2023/07/12 08:34:34;;;;;;;6.03;3.10;;;;;;;34.32;61.02;98295.81;5035857;27;104209;-68
2023/07/12 08:37:02;;;;;;;3.63;2.78;;;;;;;34.94;60.25;98290.06;5053720;27;103317;-70
2023/07/12 08:39:30;;;;;;;5.30;3.23;;;;;;;35.12;58.51;98296.09;5056503;27;102948;-69
2023/07/12 08:41:59;;;;;;;5.90;3.30;;;;;;;35.54;58.33;98299.22;5057233;27;103416;-69
2023/07/12 08:44:31;;;;;;;5.72;2.70;;;;;;;35.23;57.86;98301.25;5043913;27;104521;-68
2023/07/12 08:47:01;;;;;;;3.78;3.15;;;;;;;35.31;57.61;98302.63;5041906;27;104209;-68
2023/07/12 08:49:30;;;;;;;3.72;3.15;;;;;;;36.01;58.62;98298.75;5059783;27;102743;-69
2023/07/12 08:52:04;;;;;;;6.45;3.20;;;;;;;35.97;56.11;98298.50;5040969;27;102969;-68
2023/07/12 08:54:34;;;;;;;4.47;2.90;;;;;;;36.69;54.09;98305.16;5062357;27;104081;-67
2023/07/12 08:57:15;;;;;;;3.78;2.70;;;;;;;35.82;55.06;98306.00;5045523;27;104274;-69
2023/07/12 08:59:45;;;;;;;4.90;3.20;;;;;;;36.50;53.77;98293.22;5063144;27;102654;-70
2023/07/12 09:02:20;;;;;;;3.65;2.75;;;;;;;36.40;54.27;98307.03;5057254;27;104122;-64
2023/07/12 09:04:49;;;;;;;3.88;3.00;;;;;;;35.09;56.98;98302.13;5044717;27;104708;-65
2023/07/12 09:07:25;;;;;;;6.13;3.15;;;;;;;34.34;56.53;98301.03;5054389;27;103242;-65
2023/07/12 09:09:56;;;;;;;4.18;2.70;;;;;;;33.07;59.27;98309.81;5059613;27;103048;-65
2023/07/12 09:12:27;;;;;;;3.83;2.70;;;;;;;34.79;56.49;98306.53;5042142;27;102872;-66
2023/07/12 09:14:58;;;;;;;3.78;2.95;;;;;;;33.75;58.66;98304.16;5058718;27;103382;-66
2023/07/12 09:17:31;;;;;;;4.20;2.55;;;;;;;35.32;54.79;98305.06;5056924;27;105594;-67
2023/07/12 09:19:59;;;;;;;3.55;2.75;;;;;;;34.77;57.28;98296.94;5059164;27;102793;-65
2023/07/12 09:22:30;;;;;;;4.70;2.70;;;;;;;35.40;57.50;98303.66;5034285;27;102870;-67
2023/07/12 09:24:58;;;;;;;4.03;2.83;;;;;;;34.38;57.50;98302.13;5048036;27;104159;-67
2023/07/12 09:27:28;;;;;;;2.90;2.60;;;;;;;35.00;54.96;98304.59;5039567;27;103195;-66
2023/07/12 09:30:00;;;;;;;4.18;2.55;;;;;;;33.86;56.68;98298.72;5058464;27;102795;-65
2023/07/12 09:32:34;;;;;;;4.05;2.45;;;;;;;34.79;55.88;98294.72;5062206;27;104382;-66
2023/07/12 09:35:04;;;;;;;2.90;2.60;;;;;;;33.83;56.38;98295.41;5059609;27;103508;-66
2023/07/12 09:37:37;;;;;;;6.20;2.80;;;;;;;33.55;57.26;98286.81;5054754;27;103852;-66
2023/07/12 09:40:16;;;;;;;4.85;2.72;;;;;;;34.03;57.17;98288.34;5057619;27;103439;-66
2023/07/12 09:42:49;;;;;;;4.38;2.70;;;;;;;34.72;56.88;98292.28;5043946;27;103686;-66
2023/07/12 09:45:17;;;;;;;4.10;2.90;;;;;;;35.28;55.41;98286.72;5041763;27;104595;-67
2023/07/12 09:47:58;;;;;;;5.25;2.90;;;;;;;35.89;54.70;98282.59;5051243;27;103113;-69
2023/07/12 09:50:35;;;;;;;3.55;2.80;;;;;;;36.25;52.11;98282.38;5034227;27;102957;-70
2023/07/12 09:53:14;;;;;;;3.58;2.58;;;;;;;36.40;54.20;98268.53;5048192;27;103021;-69
2023/07/12 09:55:51;;;;;;;4.53;2.47;;;;;;;34.71;54.93;98284.31;5048717;27;104331;-70
2023/07/12 09:58:29;;;;;;;3.58;2.42;;;;;;;35.70;52.54;98275.28;5055900;27;103193;-69
2023/07/12 10:01:02;;;;;;;3.85;3.00;;;;;;;35.03;54.23;98281.25;5053242;27;102923;-69
2023/07/12 10:03:37;;;;;;;5.30;3.00;;;;;;;35.24;53.39;98282.88;5053392;27;103121;-69
2023/07/12 10:06:14;;;;;;;4.10;2.63;;;;;;;35.93;52.92;98274.63;5041947;27;104274;-69
2023/07/12 10:08:52;;;;;;;4.68;2.58;;;;;;;36.80;50.81;98284.72;5037063;27;104576;-69
2023/07/12 10:11:28;;;;;;;3.30;2.60;;;;;;;35.90;52.12;98273.22;5039892;27;103035;-70
2023/07/12 10:14:02;;;;;;;4.10;2.77;;;;;;;36.48;52.31;98268.72;5042182;27;102895;-69
2023/07/12 10:16:35;;;;;;;4.07;2.67;;;;;;;36.54;51.33;98266.78;5051322;27;103239;-70
2023/07/12 10:19:14;;;;;;;3.35;2.70;;;;;;;34.88;53.28;98279.38;5060948;27;103172;-70
2023/07/12 10:21:42;;;;;;;5.20;2.80;;;;;;;35.84;52.19;98276.31;5053592;27;102776;-69
2023/07/12 10:24:15;;;;;;;4.40;2.72;;;;;;;34.82;54.50;98273.06;5040753;27;102699;-70
2023/07/12 10:26:44;;;;;;;3.85;2.80;;;;;;;35.78;52.94;98272.78;5053586;27;104619;-69
2023/07/12 10:29:20;;;;;;;4.47;2.47;;;;;;;36.31;51.17;98264.75;5040379;27;103319;-68
2023/07/12 10:31:51;;;;;;;3.72;2.92;;;;;;;36.68;50.62;98258.69;5060126;27;102956;-70
2023/07/12 10:34:25;;;;;;;4.68;2.85;;;;;;;36.15;51.36;98255.81;5056086;27;103822;-70
2023/07/12 10:36:58;;;;;;;3.63;2.92;;;;;;;36.75;50.59;98259.97;5038511;27;104355;-69
2023/07/12 10:39:28;;;;;;;5.95;3.10;;;;;;;36.51;50.20;98250.88;5051212;27;103230;-69
2023/07/12 10:41:59;;;;;;;4.15;2.92;;;;;;;35.89;49.86;98252.38;5059749;27;102700;-69
2023/07/12 10:44:33;;;;;;;4.35;3.13;;;;;;;36.04;50.26;98260.53;5055172;27;102757;-69
2023/07/12 10:47:07;;;;;;;3.15;2.80;;;;;;;37.32;48.45;98258.28;5048929;27;104146;-69
2023/07/12 10:49:47;;;;;;;4.13;2.78;;;;;;;37.44;47.84;98247.69;5057093;27;104261;-68
2023/07/12 10:52:27;;;;;;;4.35;2.85;;;;;;;36.81;48.87;98264.31;5048425;27;103116;-70
2023/07/12 10:55:18;;;;;;;5.43;2.88;;;;;;;36.68;50.09;98259.50;5051964;27;102902;-70
2023/07/12 10:57:48;;;;;;;3.20;2.90;;;;;;;37.12;49.21;98246.41;5038540;27;104444;-69
2023/07/12 11:00:30;;;;;;;4.88;3.22;;;;;;;37.22;48.41;98247.41;5053849;27;102980;-69
2023/07/12 11:03:16;;;;;;;4.28;2.92;;;;;;;38.12;46.93;98250.91;5054029;27;102889;-70
2023/07/12 11:05:57;;;;;;;4.70;3.00;;;;;;;36.71;47.85;98247.09;5042488;27;104020;-68
2023/07/12 11:08:39;;;;;;;3.77;3.20;;;;;;;37.59;47.54;98253.00;5053496;27;104151;-69
2023/07/12 11:11:28;;;;;;;4.07;3.67;;;;;;;36.67;47.27;98246.03;5034381;27;104243;-69
2023/07/12 11:14:11;;;;;;;4.80;3.22;;;;;;;37.63;46.08;98237.53;5052026;27;102669;-68
2023/07/12 11:16:46;;;;;;;3.60;2.80;;;;;;;38.44;47.07;98233.56;5041709;27;103123;-67
2023/07/12 11:19:46;;;;;;;4.10;2.78;;;;;;;38.32;44.76;98234.00;5035878;27;104182;-69
2023/07/12 11:22:18;;;;;;;4.23;3.23;;;;;;;38.00;45.70;98231.22;5052309;27;104134;-69
2023/07/12 11:24:53;;;;;;;5.50;3.55;;;;;;;36.90;47.17;98229.56;5057852;27;103854;-69
2023/07/12 11:27:39;;;;;;;6.10;3.60;;;;;;;37.81;47.92;98225.69;5061159;27;102922;-69
2023/07/12 11:30:15;;;;;;;5.15;3.53;;;;;;;36.54;47.07;98218.09;5056917;27;103267;-69
2023/07/12 11:32:47;;;;;;;4.25;3.33;;;;;;;37.32;46.19;98225.22;5056756;27;103814;-69
2023/07/12 11:35:19;;;;;;;4.50;3.70;;;;;;;37.73;46.05;98220.84;5054436;27;102972;-69
2023/07/12 11:37:50;;;;;;;3.70;3.40;;;;;;;37.21;46.42;98234.72;5048090;27;102847;-68